sensor_id;sensor_type;location;lat;lon;timestamp;pressure;altitude;pressure_sealevel;temperature;humidity
68230;BME280;55048;52.220;5.160;2023-09-07T00:00:15;101915.06;;;21.84;82.42
68230;BME280;55048;52.220;5.160;2023-09-07T00:02:41;101907.22;;;21.83;82.90
68230;BME280;55048;52.220;5.160;2023-09-07T00:05:07;101848.56;;;21.44;82.79
68230;BME280;55048;52.220;5.160;2023-09-07T00:07:33;101732.56;;;20.74;82.98
68230;BME280;55048;52.220;5.160;2023-09-07T00:09:59;101894.00;;;21.76;83.44
68230;BME280;55048;52.220;5.160;2023-09-07T00:12:25;101765.69;;;20.90;83.35
68230;BME280;55048;52.220;5.160;2023-09-07T00:14:50;101758.91;;;20.93;83.26
68230;BME280;55048;52.220;5.160;2023-09-07T00:17:16;101881.19;;;21.58;83.52
68230;BME280;55048;52.220;5.160;2023-09-07T00:19:41;101851.06;;;21.41;83.75
68230;BME280;55048;52.220;5.160;2023-09-07T00:22:07;101769.75;;;20.87;83.76
68230;BME280;55048;52.220;5.160;2023-09-07T00:24:32;101828.13;;;21.28;83.87
68230;BME280;55048;52.220;5.160;2023-09-07T00:26:58;101817.34;;;21.23;83.67
68230;BME280;55048;52.220;5.160;2023-09-07T00:29:23;101822.97;;;21.26;83.63
68230;BME280;55048;52.220;5.160;2023-09-07T00:31:49;101866.69;;;21.44;84.12
68230;BME280;55048;52.220;5.160;2023-09-07T00:34:14;101800.38;;;21.12;83.95
68230;BME280;55048;52.220;5.160;2023-09-07T00:36:40;101822.47;;;21.24;83.26
68230;BME280;55048;52.220;5.160;2023-09-07T00:39:05;101763.03;;;20.85;84.08
68230;BME280;55048;52.220;5.160;2023-09-07T00:41:31;101825.72;;;21.21;84.08
68230;BME280;55048;52.220;5.160;2023-09-07T00:43:56;101884.59;;;21.39;84.23
68230;BME280;55048;52.220;5.160;2023-09-07T00:46:22;101871.59;;;21.42;84.50
68230;BME280;55048;52.220;5.160;2023-09-07T00:48:48;101696.50;;;20.16;84.36
68230;BME280;55048;52.220;5.160;2023-09-07T00:51:14;101851.47;;;21.19;84.37
68230;BME280;55048;52.220;5.160;2023-09-07T00:53:39;101853.00;;;21.30;84.39
68230;BME280;55048;52.220;5.160;2023-09-07T00:56:06;101832.03;;;21.11;84.26
68230;BME280;55048;52.220;5.160;2023-09-07T00:58:32;101888.41;;;21.38;84.38
68230;BME280;55048;52.220;5.160;2023-09-07T01:00:59;101869.75;;;21.37;84.60
68230;BME280;55048;52.220;5.160;2023-09-07T01:03:24;101860.69;;;21.18;84.62
68230;BME280;55048;52.220;5.160;2023-09-07T01:06:36;101868.69;;;21.33;84.51
68230;BME280;55048;52.220;5.160;2023-09-07T01:08:45;101869.00;;;21.31;84.44
68230;BME280;55048;52.220;5.160;2023-09-07T01:11:19;101861.69;;;21.27;84.75
68230;BME280;55048;52.220;5.160;2023-09-07T01:13:52;101845.34;;;21.08;84.61
68230;BME280;55048;52.220;5.160;2023-09-07T01:16:20;101871.47;;;21.23;84.67
68230;BME280;55048;52.220;5.160;2023-09-07T01:18:46;101814.97;;;20.82;84.88
68230;BME280;55048;52.220;5.160;2023-09-07T01:21:13;101588.34;;;19.42;84.59
68230;BME280;55048;52.220;5.160;2023-09-07T01:23:41;101682.59;;;19.88;85.07
68230;BME280;55048;52.220;5.160;2023-09-07T01:26:08;101865.31;;;21.12;85.08
68230;BME280;55048;52.220;5.160;2023-09-07T01:28:35;101874.50;;;21.11;85.03
68230;BME280;55048;52.220;5.160;2023-09-07T01:31:01;101790.78;;;20.61;85.13
68230;BME280;55048;52.220;5.160;2023-09-07T01:33:27;101831.44;;;20.85;85.11
68230;BME280;55048;52.220;5.160;2023-09-07T01:35:53;101759.31;;;20.31;85.54
68230;BME280;55048;52.220;5.160;2023-09-07T01:38:18;101851.38;;;20.95;85.55
68230;BME280;55048;52.220;5.160;2023-09-07T01:40:44;101820.16;;;20.73;85.37
68230;BME280;55048;52.220;5.160;2023-09-07T01:43:10;101764.69;;;20.36;85.22
68230;BME280;55048;52.220;5.160;2023-09-07T01:45:36;101796.81;;;20.48;85.58
68230;BME280;55048;52.220;5.160;2023-09-07T01:48:01;101810.50;;;20.62;85.73
68230;BME280;55048;52.220;5.160;2023-09-07T01:50:29;101845.25;;;20.79;85.62
68230;BME280;55048;52.220;5.160;2023-09-07T01:52:55;101853.88;;;20.86;85.98
68230;BME280;55048;52.220;5.160;2023-09-07T01:55:20;101840.97;;;20.73;85.93
68230;BME280;55048;52.220;5.160;2023-09-07T01:57:46;101763.44;;;20.19;86.03
68230;BME280;55048;52.220;5.160;2023-09-07T02:00:12;101714.44;;;19.86;86.22
68230;BME280;55048;52.220;5.160;2023-09-07T02:02:40;101825.44;;;20.49;86.19
68230;BME280;55048;52.220;5.160;2023-09-07T02:05:06;101816.25;;;20.45;86.11
68230;BME280;55048;52.220;5.160;2023-09-07T02:07:32;101793.91;;;20.29;86.18
68230;BME280;55048;52.220;5.160;2023-09-07T02:09:57;101836.78;;;20.51;86.54
68230;BME280;55048;52.220;5.160;2023-09-07T02:12:23;101796.69;;;20.19;86.35
68230;BME280;55048;52.220;5.160;2023-09-07T02:14:48;101824.13;;;20.36;86.47
68230;BME280;55048;52.220;5.160;2023-09-07T02:17:13;101794.81;;;20.15;86.47
68230;BME280;55048;52.220;5.160;2023-09-07T02:19:44;101861.31;;;20.60;86.58
68230;BME280;55048;52.220;5.160;2023-09-07T02:22:09;101855.47;;;20.48;86.85
68230;BME280;55048;52.220;5.160;2023-09-07T02:24:35;101813.94;;;20.18;86.82
68230;BME280;55048;52.220;5.160;2023-09-07T02:27:00;101660.19;;;19.23;87.09
68230;BME280;55048;52.220;5.160;2023-09-07T02:29:26;101859.50;;;20.40;86.97
68230;BME280;55048;52.220;5.160;2023-09-07T02:31:52;101882.72;;;20.41;86.70
68230;BME280;55048;52.220;5.160;2023-09-07T02:34:18;101827.72;;;20.22;86.60
68230;BME280;55048;52.220;5.160;2023-09-07T02:36:44;101777.66;;;19.80;86.82
68230;BME280;55048;52.220;5.160;2023-09-07T02:39:10;101860.31;;;20.41;86.86
68230;BME280;55048;52.220;5.160;2023-09-07T02:41:37;101862.50;;;20.38;87.36
68230;BME280;55048;52.220;5.160;2023-09-07T02:44:04;101859.00;;;20.28;87.36
68230;BME280;55048;52.220;5.160;2023-09-07T02:46:29;101845.28;;;20.24;87.04
68230;BME280;55048;52.220;5.160;2023-09-07T02:48:56;101661.56;;;19.05;87.31
68230;BME280;55048;52.220;5.160;2023-09-07T02:51:24;101851.22;;;20.21;87.19
68230;BME280;55048;52.220;5.160;2023-09-07T02:53:50;101864.41;;;20.28;87.12
68230;BME280;55048;52.220;5.160;2023-09-07T02:56:16;101860.16;;;20.17;87.29
68230;BME280;55048;52.220;5.160;2023-09-07T02:58:41;101702.25;;;19.14;87.36
68230;BME280;55048;52.220;5.160;2023-09-07T03:01:07;101868.50;;;20.20;87.49
68230;BME280;55048;52.220;5.160;2023-09-07T03:03:35;101846.44;;;19.98;87.66
68230;BME280;55048;52.220;5.160;2023-09-07T03:06:12;101800.38;;;19.69;88.07
68230;BME280;55048;52.220;5.160;2023-09-07T03:08:40;101864.75;;;20.16;88.14
68230;BME280;55048;52.220;5.160;2023-09-07T03:11:07;101865.28;;;20.13;88.21
68230;BME280;55048;52.220;5.160;2023-09-07T03:13:33;101868.28;;;20.11;88.32
68230;BME280;55048;52.220;5.160;2023-09-07T03:15:59;101734.31;;;19.25;87.87
68230;BME280;55048;52.220;5.160;2023-09-07T03:18:25;101860.69;;;20.08;87.93
68230;BME280;55048;52.220;5.160;2023-09-07T03:20:53;101845.06;;;19.95;88.22
68230;BME280;55048;52.220;5.160;2023-09-07T03:23:20;101861.56;;;19.94;87.91
68230;BME280;55048;52.220;5.160;2023-09-07T03:25:45;101871.25;;;20.00;88.36
68230;BME280;55048;52.220;5.160;2023-09-07T03:28:10;101788.50;;;19.49;88.31
68230;BME280;55048;52.220;5.160;2023-09-07T03:30:36;101707.41;;;18.95;88.23
68230;BME280;55048;52.220;5.160;2023-09-07T03:33:03;101851.59;;;19.84;88.41
68230;BME280;55048;52.220;5.160;2023-09-07T03:35:28;101787.69;;;19.44;88.55
68230;BME280;55048;52.220;5.160;2023-09-07T03:37:54;101813.31;;;19.51;88.39
68230;BME280;55048;52.220;5.160;2023-09-07T03:40:20;101724.38;;;19.00;88.34
68230;BME280;55048;52.220;5.160;2023-09-07T03:42:46;101824.66;;;19.58;88.73
68230;BME280;55048;52.220;5.160;2023-09-07T03:45:12;101858.91;;;19.83;88.57
68230;BME280;55048;52.220;5.160;2023-09-07T03:47:38;101546.25;;;17.64;88.67
68230;BME280;55048;52.220;5.160;2023-09-07T03:50:04;101851.63;;;19.79;88.63
68230;BME280;55048;52.220;5.160;2023-09-07T03:52:31;101846.25;;;19.69;88.92
68230;BME280;55048;52.220;5.160;2023-09-07T03:54:59;101804.69;;;19.44;88.81
68230;BME280;55048;52.220;5.160;2023-09-07T03:57:26;101755.91;;;19.15;88.60
68230;BME280;55048;52.220;5.160;2023-09-07T03:59:53;101863.22;;;19.74;88.82
68230;BME280;55048;52.220;5.160;2023-09-07T04:02:20;101850.56;;;19.70;89.42
68230;BME280;55048;52.220;5.160;2023-09-07T04:04:51;101826.56;;;19.37;89.21
68230;BME280;55048;52.220;5.160;2023-09-07T04:07:17;101776.94;;;19.18;89.16
68230;BME280;55048;52.220;5.160;2023-09-07T04:09:44;101827.09;;;19.45;89.20
68230;BME280;55048;52.220;5.160;2023-09-07T04:12:09;101818.72;;;19.41;89.44
68230;BME280;55048;52.220;5.160;2023-09-07T04:14:35;101782.06;;;19.09;89.34
68230;BME280;55048;52.220;5.160;2023-09-07T04:17:01;101849.47;;;19.45;89.27
68230;BME280;55048;52.220;5.160;2023-09-07T04:19:26;101861.34;;;19.59;89.53
68230;BME280;55048;52.220;5.160;2023-09-07T04:21:52;101848.91;;;19.48;89.82
68230;BME280;55048;52.220;5.160;2023-09-07T04:24:18;101768.59;;;19.04;89.62
68230;BME280;55048;52.220;5.160;2023-09-07T04:26:44;101837.88;;;19.45;89.96
68230;BME280;55048;52.220;5.160;2023-09-07T04:29:09;101829.78;;;19.34;89.89
68230;BME280;55048;52.220;5.160;2023-09-07T04:31:36;101838.94;;;19.38;89.89
68230;BME280;55048;52.220;5.160;2023-09-07T04:34:01;101872.16;;;19.49;89.97
68230;BME280;55048;52.220;5.160;2023-09-07T04:36:28;101771.03;;;18.85;90.18
68230;BME280;55048;52.220;5.160;2023-09-07T04:38:54;101824.13;;;19.16;90.13
68230;BME280;55048;52.220;5.160;2023-09-07T04:41:19;101768.03;;;18.92;90.29
68230;BME280;55048;52.220;5.160;2023-09-07T04:43:45;101822.50;;;19.15;90.23
68230;BME280;55048;52.220;5.160;2023-09-07T04:46:12;101858.38;;;19.41;90.13
68230;BME280;55048;52.220;5.160;2023-09-07T04:48:40;101806.63;;;19.03;90.57
68230;BME280;55048;52.220;5.160;2023-09-07T04:51:09;101806.88;;;18.96;90.42
68230;BME280;55048;52.220;5.160;2023-09-07T04:53:37;101860.00;;;19.36;90.80
68230;BME280;55048;52.220;5.160;2023-09-07T04:56:04;101817.41;;;19.03;90.95
68230;BME280;55048;52.220;5.160;2023-09-07T04:58:30;101869.19;;;19.35;91.19
68230;BME280;55048;52.220;5.160;2023-09-07T05:01:06;101753.44;;;18.57;91.02
68230;BME280;55048;52.220;5.160;2023-09-07T05:03:34;101788.28;;;18.79;91.26
68230;BME280;55048;52.220;5.160;2023-09-07T05:05:59;101826.28;;;18.98;91.24
68230;BME280;55048;52.220;5.160;2023-09-07T05:08:25;101839.50;;;19.10;91.12
68230;BME280;55048;52.220;5.160;2023-09-07T05:11:01;101831.41;;;19.05;91.27
68230;BME280;55048;52.220;5.160;2023-09-07T05:13:31;101872.41;;;19.32;91.41
68230;BME280;55048;52.220;5.160;2023-09-07T05:15:59;101804.97;;;18.92;91.02
68230;BME280;55048;52.220;5.160;2023-09-07T05:18:27;101847.59;;;19.10;91.24
68230;BME280;55048;52.220;5.160;2023-09-07T05:20:52;101891.81;;;19.29;91.56
68230;BME280;55048;52.220;5.160;2023-09-07T05:23:19;101890.22;;;19.28;91.65
68230;BME280;55048;52.220;5.160;2023-09-07T05:25:47;101818.16;;;18.83;91.10
68230;BME280;55048;52.220;5.160;2023-09-07T05:28:14;101885.63;;;19.29;91.31
68230;BME280;55048;52.220;5.160;2023-09-07T05:30:41;101858.66;;;19.08;91.46
68230;BME280;55048;52.220;5.160;2023-09-07T05:33:06;101860.78;;;19.01;91.28
68230;BME280;55048;52.220;5.160;2023-09-07T05:35:33;101834.38;;;18.93;91.72
68230;BME280;55048;52.220;5.160;2023-09-07T05:37:59;101854.88;;;19.04;91.43
68230;BME280;55048;52.220;5.160;2023-09-07T05:40:24;101912.06;;;19.32;91.58
68230;BME280;55048;52.220;5.160;2023-09-07T05:42:50;101834.38;;;18.93;91.76
68230;BME280;55048;52.220;5.160;2023-09-07T05:45:15;101840.56;;;18.94;91.79
68230;BME280;55048;52.220;5.160;2023-09-07T05:47:41;101835.72;;;18.96;91.50
68230;BME280;55048;52.220;5.160;2023-09-07T05:50:07;101891.00;;;19.19;91.48
68230;BME280;55048;52.220;5.160;2023-09-07T05:52:32;101830.59;;;18.94;91.88
68230;BME280;55048;52.220;5.160;2023-09-07T05:54:58;101882.13;;;19.13;91.78
68230;BME280;55048;52.220;5.160;2023-09-07T05:57:23;101873.47;;;19.16;91.83
68230;BME280;55048;52.220;5.160;2023-09-07T05:59:49;101910.44;;;19.36;91.72
68230;BME280;55048;52.220;5.160;2023-09-07T06:02:14;101831.41;;;19.05;91.87
68230;BME280;55048;52.220;5.160;2023-09-07T06:04:40;101874.81;;;19.80;91.83
68230;BME280;55048;52.220;5.160;2023-09-07T06:07:06;101897.06;;;20.52;90.26
68230;BME280;55048;52.220;5.160;2023-09-07T06:09:31;101880.31;;;20.94;88.61
68230;BME280;55048;52.220;5.160;2023-09-07T06:11:57;101870.56;;;21.37;86.08
68230;BME280;55048;52.220;5.160;2023-09-07T06:14:22;101828.75;;;21.49;84.27
68230;BME280;55048;52.220;5.160;2023-09-07T06:16:48;101871.44;;;22.15;82.45
68230;BME280;55048;52.220;5.160;2023-09-07T06:19:13;101839.66;;;22.21;80.69
68230;BME280;55048;52.220;5.160;2023-09-07T06:21:39;101848.69;;;22.35;79.36
68230;BME280;55048;52.220;5.160;2023-09-07T06:24:05;101908.66;;;22.71;78.58
68230;BME280;55048;52.220;5.160;2023-09-07T06:26:32;101899.78;;;22.84;77.78
68230;BME280;55048;52.220;5.160;2023-09-07T06:28:57;101881.41;;;22.81;77.22
68230;BME280;55048;52.220;5.160;2023-09-07T06:31:23;101934.72;;;23.10;76.33
68230;BME280;55048;52.220;5.160;2023-09-07T06:33:48;101889.53;;;22.81;75.89
68230;BME280;55048;52.220;5.160;2023-09-07T06:36:14;101870.63;;;22.57;75.64
68230;BME280;55048;52.220;5.160;2023-09-07T06:38:40;101938.63;;;22.80;75.58
68230;BME280;55048;52.220;5.160;2023-09-07T06:41:05;101852.91;;;22.22;75.39
68230;BME280;55048;52.220;5.160;2023-09-07T06:43:33;101931.06;;;22.58;75.66
68230;BME280;55048;52.220;5.160;2023-09-07T06:46:07;101846.13;;;21.96;75.28
68230;BME280;55048;52.220;5.160;2023-09-07T06:48:35;101939.91;;;22.45;75.65
68230;BME280;55048;52.220;5.160;2023-09-07T06:51:02;101856.91;;;21.77;76.01
68230;BME280;55048;52.220;5.160;2023-09-07T06:53:29;101939.09;;;22.20;76.19
68230;BME280;55048;52.220;5.160;2023-09-07T06:55:59;101949.50;;;22.08;76.51
68230;BME280;55048;52.220;5.160;2023-09-07T06:58:24;101922.41;;;22.08;76.79
68230;BME280;55048;52.220;5.160;2023-09-07T07:00:50;101912.72;;;22.02;76.75
68230;BME280;55048;52.220;5.160;2023-09-07T07:03:15;101872.69;;;21.70;76.89
68230;BME280;55048;52.220;5.160;2023-09-07T07:05:40;101766.63;;;21.09;77.22
68230;BME280;55048;52.220;5.160;2023-09-07T07:08:07;101761.50;;;21.08;77.06
68230;BME280;55048;52.220;5.160;2023-09-07T07:10:32;101909.47;;;22.00;77.00
68230;BME280;55048;52.220;5.160;2023-09-07T07:12:57;101845.31;;;21.71;76.68
68230;BME280;55048;52.220;5.160;2023-09-07T07:15:23;101940.66;;;22.26;76.78
68230;BME280;55048;52.220;5.160;2023-09-07T07:17:48;101873.22;;;21.96;76.56
68230;BME280;55048;52.220;5.160;2023-09-07T07:20:14;101903.66;;;22.17;76.28
68230;BME280;55048;52.220;5.160;2023-09-07T07:22:39;101909.00;;;22.22;75.95
68230;BME280;55048;52.220;5.160;2023-09-07T07:25:05;101899.94;;;22.31;75.85
68230;BME280;55048;52.220;5.160;2023-09-07T07:27:32;101860.38;;;22.06;75.77
68230;BME280;55048;52.220;5.160;2023-09-07T07:29:57;101795.16;;;21.79;75.70
68230;BME280;55048;52.220;5.160;2023-09-07T07:32:23;101924.69;;;22.67;75.43
68230;BME280;55048;52.220;5.160;2023-09-07T07:34:48;101901.16;;;22.63;75.20
68230;BME280;55048;52.220;5.160;2023-09-07T07:37:14;101874.88;;;22.63;74.69
68230;BME280;55048;52.220;5.160;2023-09-07T07:39:40;101920.50;;;22.99;74.30
68230;BME280;55048;52.220;5.160;2023-09-07T07:42:06;101924.38;;;23.12;73.75
68230;BME280;55048;52.220;5.160;2023-09-07T07:44:31;101916.66;;;23.19;73.66
68230;BME280;55048;52.220;5.160;2023-09-07T07:46:57;101883.97;;;23.10;73.30
68230;BME280;55048;52.220;5.160;2023-09-07T07:49:23;101876.28;;;23.17;73.03
68230;BME280;55048;52.220;5.160;2023-09-07T07:51:48;101875.56;;;23.26;72.77
68230;BME280;55048;52.220;5.160;2023-09-07T07:54:13;101870.94;;;23.26;72.74
68230;BME280;55048;52.220;5.160;2023-09-07T07:56:39;101883.50;;;23.55;72.72
68230;BME280;55048;52.220;5.160;2023-09-07T07:59:05;101931.91;;;23.99;72.09
68230;BME280;55048;52.220;5.160;2023-09-07T08:01:30;101867.97;;;23.74;71.69
68230;BME280;55048;52.220;5.160;2023-09-07T08:03:57;101902.69;;;24.05;71.25
68230;BME280;55048;52.220;5.160;2023-09-07T08:06:24;101850.28;;;23.90;71.18
68230;BME280;55048;52.220;5.160;2023-09-07T08:08:50;101907.66;;;24.30;70.35
68230;BME280;55048;52.220;5.160;2023-09-07T08:11:16;101921.66;;;24.51;69.84
68230;BME280;55048;52.220;5.160;2023-09-07T08:13:42;101918.53;;;24.58;69.44
68230;BME280;55048;52.220;5.160;2023-09-07T08:16:12;101874.81;;;24.54;68.60
68230;BME280;55048;52.220;5.160;2023-09-07T08:18:37;101882.94;;;24.68;67.95
68230;BME280;55048;52.220;5.160;2023-09-07T08:21:03;101658.44;;;23.39;67.37
68230;BME280;55048;52.220;5.160;2023-09-07T08:23:28;101852.81;;;24.64;67.21
68230;BME280;55048;52.220;5.160;2023-09-07T08:25:54;101871.38;;;24.85;67.06
68230;BME280;55048;52.220;5.160;2023-09-07T08:28:22;101837.88;;;24.76;66.57
68230;BME280;55048;52.220;5.160;2023-09-07T08:30:49;101803.66;;;24.61;65.84
68230;BME280;55048;52.220;5.160;2023-09-07T08:33:16;101796.81;;;24.63;65.30
68230;BME280;55048;52.220;5.160;2023-09-07T08:35:42;101871.69;;;25.19;65.03
68230;BME280;55048;52.220;5.160;2023-09-07T08:38:10;101889.47;;;25.48;64.68
68230;BME280;55048;52.220;5.160;2023-09-07T08:40:35;101854.34;;;25.38;64.25
68230;BME280;55048;52.220;5.160;2023-09-07T08:43:03;101790.28;;;25.09;63.35
68230;BME280;55048;52.220;5.160;2023-09-07T08:45:30;101902.81;;;25.81;62.70
68230;BME280;55048;52.220;5.160;2023-09-07T08:47:59;101890.66;;;25.87;62.24
68230;BME280;55048;52.220;5.160;2023-09-07T08:50:25;101862.88;;;25.76;62.31
68230;BME280;55048;52.220;5.160;2023-09-07T08:52:52;101810.31;;;25.44;61.24
68230;BME280;55048;52.220;5.160;2023-09-07T08:55:18;101832.38;;;25.65;60.91
68230;BME280;55048;52.220;5.160;2023-09-07T08:57:45;101665.63;;;24.66;60.56
68230;BME280;55048;52.220;5.160;2023-09-07T09:00:11;101876.25;;;25.95;60.62
68230;BME280;55048;52.220;5.160;2023-09-07T09:02:42;101829.28;;;25.89;60.09
68230;BME280;55048;52.220;5.160;2023-09-07T09:05:09;101854.16;;;26.05;59.43
68230;BME280;55048;52.220;5.160;2023-09-07T09:07:37;101860.28;;;26.19;59.02
68230;BME280;55048;52.220;5.160;2023-09-07T09:10:05;101838.63;;;26.14;59.36
68230;BME280;55048;52.220;5.160;2023-09-07T09:12:30;101822.44;;;26.18;58.32
68230;BME280;55048;52.220;5.160;2023-09-07T09:14:55;101892.31;;;26.62;58.02
68230;BME280;55048;52.220;5.160;2023-09-07T09:17:24;101736.06;;;25.70;57.46
68230;BME280;55048;52.220;5.160;2023-09-07T09:19:49;101866.34;;;26.65;57.66
68230;BME280;55048;52.220;5.160;2023-09-07T09:22:15;101841.59;;;26.61;57.05
68230;BME280;55048;52.220;5.160;2023-09-07T09:24:40;101879.50;;;26.89;56.68
68230;BME280;55048;52.220;5.160;2023-09-07T09:27:06;101815.13;;;26.62;56.25
68230;BME280;55048;52.220;5.160;2023-09-07T09:29:35;101875.81;;;27.11;56.42
68230;BME280;55048;52.220;5.160;2023-09-07T09:32:03;101876.13;;;27.18;56.48
68230;BME280;55048;52.220;5.160;2023-09-07T09:34:37;101874.31;;;27.31;55.82
68230;BME280;55048;52.220;5.160;2023-09-07T09:37:03;101848.47;;;27.28;55.99
68230;BME280;55048;52.220;5.160;2023-09-07T09:39:29;101873.94;;;27.58;56.08
68230;BME280;55048;52.220;5.160;2023-09-07T09:41:55;101831.22;;;27.45;55.20
68230;BME280;55048;52.220;5.160;2023-09-07T09:44:22;101820.63;;;27.43;55.51
68230;BME280;55048;52.220;5.160;2023-09-07T09:46:51;101875.28;;;27.90;55.37
68230;BME280;55048;52.220;5.160;2023-09-07T09:49:17;101778.09;;;27.34;54.52
68230;BME280;55048;52.220;5.160;2023-09-07T09:51:45;101751.78;;;27.20;54.72
68230;BME280;55048;52.220;5.160;2023-09-07T09:54:11;101762.59;;;27.46;53.97
68230;BME280;55048;52.220;5.160;2023-09-07T09:56:37;101676.06;;;26.91;53.63
68230;BME280;55048;52.220;5.160;2023-09-07T09:59:02;101864.78;;;28.31;52.39
68230;BME280;55048;52.220;5.160;2023-09-07T10:01:29;101808.06;;;27.89;51.32
68230;BME280;55048;52.220;5.160;2023-09-07T10:03:55;101843.25;;;28.20;51.35
68230;BME280;55048;52.220;5.160;2023-09-07T10:06:27;101868.88;;;28.45;51.08
68230;BME280;55048;52.220;5.160;2023-09-07T10:09:03;101862.44;;;28.62;50.22
68230;BME280;55048;52.220;5.160;2023-09-07T10:11:39;101852.50;;;28.58;49.98
68230;BME280;55048;52.220;5.160;2023-09-07T10:14:06;101857.50;;;28.77;49.80
68230;BME280;55048;52.220;5.160;2023-09-07T10:16:53;101753.69;;;28.17;49.55
68230;BME280;55048;52.220;5.160;2023-09-07T10:19:25;101848.97;;;28.78;49.56
68230;BME280;55048;52.220;5.160;2023-09-07T10:21:55;101852.09;;;28.89;49.52
68230;BME280;55048;52.220;5.160;2023-09-07T10:24:28;101851.56;;;28.95;48.46
68230;BME280;55048;52.220;5.160;2023-09-07T10:27:05;101800.22;;;28.71;48.76
68230;BME280;55048;52.220;5.160;2023-09-07T10:29:46;101858.69;;;29.09;48.57
68230;BME280;55048;52.220;5.160;2023-09-07T10:32:15;101752.41;;;28.57;49.04
68230;BME280;55048;52.220;5.160;2023-09-07T10:34:41;101783.84;;;28.84;47.93
68230;BME280;55048;52.220;5.160;2023-09-07T10:37:15;101843.34;;;29.29;47.44
68230;BME280;55048;52.220;5.160;2023-09-07T10:39:42;101846.97;;;29.33;47.27
68230;BME280;55048;52.220;5.160;2023-09-07T10:42:23;101778.16;;;28.89;46.89
68230;BME280;55048;52.220;5.160;2023-09-07T10:44:50;101841.19;;;29.34;46.56
68230;BME280;55048;52.220;5.160;2023-09-07T10:47:15;101778.09;;;28.97;46.45
68230;BME280;55048;52.220;5.160;2023-09-07T10:49:41;101748.84;;;28.89;46.06
68230;BME280;55048;52.220;5.160;2023-09-07T10:52:07;101800.75;;;29.31;46.09
68230;BME280;55048;52.220;5.160;2023-09-07T10:54:33;101817.53;;;29.42;45.05
68230;BME280;55048;52.220;5.160;2023-09-07T10:57:07;101835.03;;;29.49;44.35
68230;BME280;55048;52.220;5.160;2023-09-07T10:59:33;101846.06;;;29.62;44.59
68230;BME280;55048;52.220;5.160;2023-09-07T11:02:06;101761.13;;;29.16;46.44
68230;BME280;55048;52.220;5.160;2023-09-07T11:04:31;101824.13;;;29.62;44.70
68230;BME280;55048;52.220;5.160;2023-09-07T11:06:57;101699.19;;;28.91;44.84
68230;BME280;55048;52.220;5.160;2023-09-07T11:09:23;101799.19;;;29.55;43.97
68230;BME280;55048;52.220;5.160;2023-09-07T11:11:48;101808.13;;;29.64;43.76
68230;BME280;55048;52.220;5.160;2023-09-07T11:14:13;101818.53;;;29.70;43.36
68230;BME280;55048;52.220;5.160;2023-09-07T11:16:40;101817.13;;;29.89;44.34
68230;BME280;55048;52.220;5.160;2023-09-07T11:19:06;101829.91;;;30.09;44.06
68230;BME280;55048;52.220;5.160;2023-09-07T11:21:34;101813.69;;;29.92;43.89
68230;BME280;55048;52.220;5.160;2023-09-07T11:24:01;101775.31;;;29.80;43.96
68230;BME280;55048;52.220;5.160;2023-09-07T11:26:40;101773.94;;;29.73;43.25
68230;BME280;55048;52.220;5.160;2023-09-07T11:29:06;101788.91;;;29.88;43.30
68230;BME280;55048;52.220;5.160;2023-09-07T11:31:31;101770.50;;;29.89;43.20
68230;BME280;55048;52.220;5.160;2023-09-07T11:33:57;101720.03;;;29.65;42.94
68230;BME280;55048;52.220;5.160;2023-09-07T11:36:23;101817.31;;;30.33;42.75
68230;BME280;55048;52.220;5.160;2023-09-07T11:38:49;101746.97;;;29.88;42.61
68230;BME280;55048;52.220;5.160;2023-09-07T11:41:15;101720.94;;;29.82;42.97
68230;BME280;55048;52.220;5.160;2023-09-07T11:43:40;101802.25;;;30.27;42.82
68230;BME280;55048;52.220;5.160;2023-09-07T11:46:07;101757.31;;;30.07;41.79
68230;BME280;55048;52.220;5.160;2023-09-07T11:48:33;101777.34;;;30.19;42.16
68230;BME280;55048;52.220;5.160;2023-09-07T11:51:00;101716.47;;;29.89;42.68
68230;BME280;55048;52.220;5.160;2023-09-07T11:53:25;101739.75;;;29.95;41.91
68230;BME280;55048;52.220;5.160;2023-09-07T11:55:51;101777.56;;;30.27;41.55
68230;BME280;55048;52.220;5.160;2023-09-07T11:58:16;101806.84;;;30.51;41.64
68230;BME280;55048;52.220;5.160;2023-09-07T12:00:42;101799.06;;;30.53;41.57
68230;BME280;55048;52.220;5.160;2023-09-07T12:03:08;101740.06;;;30.18;41.58
68230;BME280;55048;52.220;5.160;2023-09-07T12:05:33;101787.03;;;30.57;42.09
68230;BME280;55048;52.220;5.160;2023-09-07T12:08:01;101726.09;;;30.23;41.90
68230;BME280;55048;52.220;5.160;2023-09-07T12:10:26;101691.31;;;29.99;42.24
68230;BME280;55048;52.220;5.160;2023-09-07T12:12:52;101788.84;;;30.65;42.17
68230;BME280;55048;52.220;5.160;2023-09-07T12:15:17;101740.59;;;30.36;41.95
68230;BME280;55048;52.220;5.160;2023-09-07T12:17:42;101687.84;;;30.03;42.08
68230;BME280;55048;52.220;5.160;2023-09-07T12:20:08;101751.56;;;30.36;41.14
68230;BME280;55048;52.220;5.160;2023-09-07T12:22:36;101772.06;;;30.55;41.22
68230;BME280;55048;52.220;5.160;2023-09-07T12:25:06;101788.03;;;30.65;40.93
68230;BME280;55048;52.220;5.160;2023-09-07T12:27:35;101757.84;;;30.37;40.21
68230;BME280;55048;52.220;5.160;2023-09-07T12:30:04;101585.94;;;29.20;40.51
68230;BME280;55048;52.220;5.160;2023-09-07T12:32:33;101666.47;;;29.80;40.83
68230;BME280;55048;52.220;5.160;2023-09-07T12:34:59;101751.47;;;30.33;40.89
68230;BME280;55048;52.220;5.160;2023-09-07T12:37:24;101673.69;;;30.01;40.81
68230;BME280;55048;52.220;5.160;2023-09-07T12:39:51;101628.28;;;29.75;41.22
68230;BME280;55048;52.220;5.160;2023-09-07T12:42:17;101622.22;;;29.82;40.91
68230;BME280;55048;52.220;5.160;2023-09-07T12:44:43;101758.88;;;30.60;40.59
68230;BME280;55048;52.220;5.160;2023-09-07T12:47:09;101624.88;;;29.78;40.60